createdAt,value
2022-08-04T00:00:11.286Z,22.10
2022-08-04T00:03:10.040Z,22.10
2022-08-04T00:06:23.061Z,22.10
2022-08-04T00:08:56.192Z,22.10
2022-08-04T00:11:26.028Z,22.00
2022-08-04T00:14:04.576Z,22.00
2022-08-04T00:16:38.063Z,22.00
2022-08-04T00:19:12.104Z,22.00
2022-08-04T00:21:42.220Z,22.00
2022-08-04T00:24:13.005Z,22.00
2022-08-04T00:26:41.126Z,21.90
2022-08-04T00:29:08.170Z,21.90
2022-08-04T00:31:56.002Z,21.90
2022-08-04T00:34:25.404Z,21.90
2022-08-04T00:36:54.573Z,21.90
2022-08-04T00:39:21.883Z,21.90
2022-08-04T00:42:15.467Z,21.90
2022-08-04T00:45:09.483Z,21.90
2022-08-04T00:47:54.836Z,21.90
2022-08-04T00:50:44.868Z,21.90
2022-08-04T00:53:38.287Z,21.90
2022-08-04T00:56:45.013Z,21.90
2022-08-04T00:59:37.952Z,21.90
2022-08-04T01:02:24.650Z,21.90
2022-08-04T01:05:05.357Z,21.90
2022-08-04T01:07:43.845Z,21.90
2022-08-04T01:10:33.767Z,21.90
2022-08-04T01:13:52.322Z,21.90
2022-08-04T01:16:24.705Z,21.90
2022-08-04T01:18:51.402Z,21.90
2022-08-04T01:21:29.960Z,21.80
2022-08-04T01:24:28.035Z,21.80
2022-08-04T01:27:14.404Z,21.80
2022-08-04T01:29:48.769Z,21.70
2022-08-04T01:32:31.651Z,21.70
2022-08-04T01:35:15.388Z,21.70
2022-08-04T01:38:18.176Z,21.70
2022-08-04T01:40:51.802Z,21.70
2022-08-04T01:43:19.991Z,21.60
2022-08-04T01:45:51.795Z,21.60
2022-08-04T01:48:27.226Z,21.50
2022-08-04T01:50:57.098Z,21.50
2022-08-04T01:53:30.523Z,21.50
2022-08-04T01:55:57.730Z,21.50
2022-08-04T01:58:25.286Z,21.50
2022-08-04T02:01:08.170Z,21.50
2022-08-04T02:04:18.103Z,21.50
2022-08-04T02:06:49.546Z,21.50
2022-08-04T02:09:26.101Z,21.40
2022-08-04T02:12:16.577Z,21.40
2022-08-04T02:15:13.836Z,21.40
2022-08-04T02:17:43.472Z,21.40
2022-08-04T02:20:23.018Z,21.40
2022-08-04T02:23:01.321Z,21.30
2022-08-04T02:25:32.712Z,21.30
2022-08-04T02:28:02.221Z,21.30
2022-08-04T02:30:34.403Z,21.30
2022-08-04T02:33:04.363Z,21.30
2022-08-04T02:35:36.456Z,21.30
2022-08-04T02:38:51.129Z,21.30
2022-08-04T02:41:19.991Z,21.30
2022-08-04T02:43:50.893Z,21.20
2022-08-04T02:46:20.917Z,21.20
2022-08-04T02:48:49.778Z,21.20
2022-08-04T02:51:19.965Z,21.20
2022-08-04T02:53:49.768Z,21.20
2022-08-04T02:56:20.118Z,21.20
2022-08-04T02:58:51.988Z,21.20
2022-08-04T03:01:18.797Z,21.20
2022-08-04T03:04:06.581Z,21.10
2022-08-04T03:07:15.605Z,21.20
2022-08-04T03:10:21.327Z,21.10
2022-08-04T03:13:18.871Z,21.10
2022-08-04T03:16:01.194Z,21.10
2022-08-04T03:18:57.494Z,21.10
2022-08-04T03:21:49.506Z,21.10
2022-08-04T03:25:07.740Z,21.10
2022-08-04T03:27:52.538Z,21.00
2022-08-04T03:30:43.405Z,21.00
2022-08-04T03:33:52.265Z,21.00
2022-08-04T03:36:34.125Z,21.00
2022-08-04T03:39:18.223Z,21.00
2022-08-04T03:42:08.010Z,21.00
2022-08-04T03:44:34.975Z,21.00
2022-08-04T03:47:27.452Z,21.00
2022-08-04T03:50:13.015Z,20.90
2022-08-04T03:53:19.650Z,20.90
2022-08-04T03:55:49.003Z,20.90
2022-08-04T03:58:37.259Z,20.90
2022-08-04T04:02:01.035Z,20.90
2022-08-04T04:04:46.120Z,20.80
2022-08-04T04:07:26.528Z,20.80
2022-08-04T04:10:46.942Z,20.80
2022-08-04T04:13:38.016Z,20.80
2022-08-04T04:16:23.754Z,20.80
2022-08-04T04:19:08.470Z,20.80
2022-08-04T04:22:15.031Z,20.80
2022-08-04T04:25:33.985Z,20.80
2022-08-04T04:28:45.764Z,20.90
2022-08-04T04:31:47.191Z,20.90
2022-08-04T04:34:25.880Z,21.00
2022-08-04T04:37:16.240Z,21.00
2022-08-04T04:40:03.445Z,21.00
2022-08-04T04:42:59.241Z,21.00
2022-08-04T04:45:55.019Z,21.10
2022-08-04T04:48:47.875Z,21.10
2022-08-04T04:51:35.916Z,21.10
2022-08-04T04:54:14.648Z,21.10
2022-08-04T04:56:47.114Z,21.20
2022-08-04T04:59:18.792Z,21.20
2022-08-04T05:01:45.415Z,21.30
2022-08-04T05:04:34.267Z,21.30
2022-08-04T05:07:25.659Z,21.40
2022-08-04T05:09:59.933Z,21.50
2022-08-04T05:14:33.169Z,21.60
2022-08-04T05:15:33.422Z,21.80
2022-08-04T05:18:02.765Z,21.80
2022-08-04T05:20:38.684Z,21.90
2022-08-04T05:23:16.276Z,22.00
2022-08-04T05:26:00.196Z,22.10
2022-08-04T05:28:43.123Z,22.20
2022-08-04T05:31:15.883Z,22.30
2022-08-04T05:33:45.252Z,22.30
2022-08-04T05:36:23.848Z,22.40
2022-08-04T05:38:59.814Z,22.50
2022-08-04T05:41:44.825Z,22.50
2022-08-04T05:44:15.121Z,22.60
2022-08-04T05:46:43.779Z,22.60
2022-08-04T05:49:11.096Z,22.70
2022-08-04T05:51:46.084Z,22.80
2022-08-04T05:54:14.027Z,22.90
2022-08-04T05:56:42.161Z,23.00
2022-08-04T05:59:12.101Z,23.00
2022-08-04T06:01:55.485Z,23.10
2022-08-04T06:04:29.808Z,23.10
2022-08-04T06:06:56.674Z,23.20
2022-08-04T06:09:23.580Z,23.30
2022-08-04T06:12:00.428Z,23.40
2022-08-04T06:14:39.340Z,23.40
2022-08-04T06:18:33.367Z,23.50
2022-08-04T06:20:02.708Z,23.60
2022-08-04T06:22:44.707Z,23.70
2022-08-04T06:25:15.628Z,23.80
2022-08-04T06:27:43.218Z,23.90
2022-08-04T06:30:14.368Z,23.90
2022-08-04T06:32:49.910Z,24.00
2022-08-04T06:35:18.180Z,24.00
2022-08-04T06:37:46.990Z,24.00
2022-08-04T06:40:30.713Z,24.10
2022-08-04T06:43:01.485Z,24.20
2022-08-04T06:45:29.330Z,24.20
2022-08-04T06:47:57.117Z,24.20
2022-08-04T06:51:30.618Z,24.20
2022-08-04T06:53:11.986Z,24.30
2022-08-04T06:55:40.764Z,24.40
2022-08-04T06:58:08.918Z,24.40
2022-08-04T07:00:37.231Z,24.50
2022-08-04T07:03:05.417Z,24.60
2022-08-04T07:05:32.750Z,24.60
2022-08-04T07:07:59.778Z,24.60
2022-08-04T07:10:30.516Z,24.60
2022-08-04T07:12:58.286Z,24.70
2022-08-04T07:15:25.694Z,24.80
2022-08-04T07:17:54.479Z,24.80
2022-08-04T07:20:35.218Z,24.80
2022-08-04T07:23:04.508Z,24.80
2022-08-04T07:26:00.755Z,24.80
2022-08-04T07:28:20.113Z,24.80
2022-08-04T07:30:49.070Z,24.80
2022-08-04T07:33:19.655Z,24.90
2022-08-04T07:36:09.412Z,24.90
2022-08-04T07:38:37.939Z,25.00
2022-08-04T07:41:36.666Z,25.00
2022-08-04T07:44:04.772Z,25.00
2022-08-04T07:46:31.740Z,25.00
2022-08-04T07:49:01.202Z,25.00
2022-08-04T07:51:29.232Z,25.00
2022-08-04T07:53:57.134Z,25.00
2022-08-04T07:56:24.943Z,25.10
2022-08-04T07:58:51.667Z,25.00
2022-08-04T08:01:20.124Z,25.10
2022-08-04T08:03:47.931Z,25.10
2022-08-04T08:06:17.295Z,25.00
2022-08-04T08:09:00.917Z,25.10
2022-08-04T08:12:35.111Z,25.20
2022-08-04T08:14:28.147Z,25.30
2022-08-04T08:16:54.891Z,25.40
2022-08-04T08:19:21.807Z,25.60
2022-08-04T08:21:59.335Z,25.70
2022-08-04T08:24:31.388Z,25.90
2022-08-04T08:26:58.847Z,26.00
2022-08-04T08:29:26.733Z,26.20
2022-08-04T08:31:56.256Z,26.40
2022-08-04T08:34:27.580Z,26.60
2022-08-04T08:37:13.790Z,26.70
2022-08-04T08:40:12.589Z,26.70
2022-08-04T08:42:45.478Z,26.80
2022-08-04T08:45:38.394Z,26.90
2022-08-04T08:48:15.737Z,27.10
2022-08-04T08:50:57.925Z,27.30
2022-08-04T08:53:43.381Z,27.60
2022-08-04T08:56:13.212Z,28.00
2022-08-04T08:59:18.186Z,28.20
2022-08-04T09:02:02.122Z,28.30
2022-08-04T09:05:08.289Z,28.40
2022-08-04T09:08:10.367Z,28.40
2022-08-04T09:10:46.418Z,28.50
2022-08-04T09:13:47.369Z,28.40
2022-08-04T09:16:45.188Z,28.30
2022-08-04T09:19:38.567Z,28.20
2022-08-04T09:22:34.855Z,28.20
2022-08-04T09:25:09.471Z,28.20
2022-08-04T09:28:06.059Z,28.40
2022-08-04T09:30:45.948Z,28.50
2022-08-04T09:33:44.454Z,28.70
2022-08-04T09:36:27.925Z,28.70
2022-08-04T09:39:10.065Z,28.90
2022-08-04T09:41:49.213Z,29.00
2022-08-04T09:44:52.101Z,29.10
2022-08-04T09:48:02.788Z,29.30
2022-08-04T09:50:39.313Z,29.60
2022-08-04T09:53:36.434Z,29.70
2022-08-04T09:56:06.166Z,29.80
2022-08-04T09:59:06.778Z,30.00
2022-08-04T10:01:35.028Z,30.20
2022-08-04T10:04:05.895Z,30.30
2022-08-04T10:06:38.658Z,30.40
2022-08-04T10:09:42.923Z,30.20
2022-08-04T10:12:45.111Z,30.20
2022-08-04T10:15:20.757Z,29.90
2022-08-04T10:17:54.270Z,29.80
2022-08-04T10:20:44.937Z,29.60
2022-08-04T10:23:55.120Z,29.40
2022-08-04T10:26:29.341Z,29.30
2022-08-04T10:29:03.450Z,29.20
2022-08-04T10:31:35.173Z,29.10
2022-08-04T10:34:11.875Z,29.10
2022-08-04T10:36:48.911Z,29.00
2022-08-04T10:39:41.906Z,28.90
2022-08-04T10:42:19.408Z,28.80
2022-08-04T10:45:11.083Z,28.60
2022-08-04T10:47:58.721Z,28.30
2022-08-04T10:50:29.223Z,28.20
2022-08-04T10:53:09.663Z,28.00
2022-08-04T10:56:07.718Z,27.80
2022-08-04T10:58:47.499Z,27.60
2022-08-04T11:02:00.660Z,27.40
2022-08-04T11:04:53.223Z,27.20
2022-08-04T11:07:22.028Z,27.00
2022-08-04T11:09:49.098Z,26.90
2022-08-04T11:12:26.326Z,26.90
2022-08-04T11:15:06.558Z,27.00
2022-08-04T11:17:38.159Z,27.10
2022-08-04T11:20:35.019Z,27.30
2022-08-04T11:23:10.039Z,27.50
2022-08-04T11:25:52.070Z,27.70
2022-08-04T11:28:23.290Z,27.90
2022-08-04T11:31:08.442Z,28.10
2022-08-04T11:33:47.791Z,28.30
2022-08-04T11:36:25.014Z,28.40
2022-08-04T11:38:57.943Z,28.30
2022-08-04T11:41:40.676Z,28.30
2022-08-04T11:44:12.783Z,28.10
2022-08-04T11:46:48.308Z,28.20
2022-08-04T11:49:56.857Z,28.60
2022-08-04T11:52:26.768Z,28.90
2022-08-04T11:54:55.192Z,29.00
2022-08-04T11:57:25.685Z,29.00
2022-08-04T12:00:07.401Z,29.10
2022-08-04T12:03:09.605Z,29.20
2022-08-04T12:05:47.176Z,29.30
2022-08-04T12:08:51.733Z,29.50
2022-08-04T12:11:46.479Z,29.80
2022-08-04T12:14:39.079Z,30.00
2022-08-04T12:17:06.698Z,30.20
2022-08-04T12:20:04.035Z,30.20
2022-08-04T12:22:43.672Z,30.10
2022-08-04T12:25:16.127Z,30.00
2022-08-04T12:28:15.202Z,30.00
2022-08-04T12:30:57.310Z,30.00
2022-08-04T12:34:02.705Z,30.00
2022-08-04T12:36:55.468Z,30.10
2022-08-04T12:39:25.858Z,30.20
2022-08-04T12:41:58.661Z,30.30
2022-08-04T12:44:33.452Z,30.40
2022-08-04T12:47:26.615Z,30.50
2022-08-04T12:50:03.557Z,30.40
2022-08-04T12:55:31.781Z,30.30
2022-08-04T12:58:01.576Z,30.30
2022-08-04T13:00:39.695Z,30.20
2022-08-04T13:03:11.357Z,30.10
2022-08-04T13:05:41.004Z,30.10
2022-08-04T13:08:10.051Z,30.10
2022-08-04T13:10:47.010Z,30.20
2022-08-04T13:13:27.427Z,30.10
2022-08-04T13:15:59.728Z,30.10
2022-08-04T13:18:30.442Z,30.00
2022-08-04T13:21:20.299Z,29.90
2022-08-04T13:24:10.976Z,29.80
2022-08-04T13:26:57.186Z,29.70
2022-08-04T13:30:00.675Z,29.60
2022-08-04T13:32:31.446Z,29.70
2022-08-04T13:35:01.387Z,29.70
2022-08-04T13:37:35.887Z,29.80
2022-08-04T13:40:05.968Z,30.20
2022-08-04T13:42:35.745Z,30.30
2022-08-04T13:45:05.872Z,30.40
2022-08-04T13:47:37.162Z,30.40
2022-08-04T13:50:15.969Z,30.10
2022-08-04T13:52:44.088Z,29.90
2022-08-04T13:55:28.542Z,29.70
2022-08-04T13:57:58.527Z,29.50
2022-08-04T14:00:29.441Z,29.40
2022-08-04T14:03:03.537Z,29.30
2022-08-04T14:06:16.074Z,29.30
2022-08-04T14:08:48.657Z,29.20
2022-08-04T14:12:04.775Z,29.00
2022-08-04T14:14:24.876Z,28.80
2022-08-04T14:17:19.722Z,28.80
2022-08-04T14:19:50.265Z,28.80
2022-08-04T14:22:25.959Z,28.80
2022-08-04T14:25:16.087Z,28.90
2022-08-04T14:27:58.232Z,28.80
2022-08-04T14:30:36.835Z,28.80
2022-08-04T14:34:02.537Z,28.90
2022-08-04T14:36:01.711Z,28.90
2022-08-04T14:38:46.721Z,29.00
2022-08-04T14:41:15.225Z,29.00
2022-08-04T14:43:53.654Z,28.90
2022-08-04T14:46:21.775Z,28.90
2022-08-04T14:49:10.262Z,28.90
2022-08-04T14:51:51.876Z,28.90
2022-08-04T14:54:30.659Z,28.90
2022-08-04T14:57:08.642Z,29.00
2022-08-04T14:59:59.509Z,29.10
2022-08-04T15:02:30.107Z,29.20
2022-08-04T15:04:57.747Z,29.20
2022-08-04T15:07:25.467Z,29.20
2022-08-04T15:09:52.632Z,29.20
2022-08-04T15:12:20.622Z,29.20
2022-08-04T15:14:47.679Z,29.10
2022-08-04T15:17:29.082Z,29.20
2022-08-04T15:19:58.153Z,29.30
2022-08-04T15:22:25.255Z,29.30
2022-08-04T15:24:55.541Z,29.20
2022-08-04T15:27:29.850Z,29.20
2022-08-04T15:30:02.308Z,29.20
2022-08-04T15:32:32.792Z,29.20
2022-08-04T15:35:12.618Z,29.20
2022-08-04T15:38:05.850Z,29.00
2022-08-04T15:41:04.576Z,28.90
2022-08-04T15:44:06.454Z,28.60
2022-08-04T15:46:51.062Z,28.50
2022-08-04T15:49:22.687Z,28.60
2022-08-04T15:52:11.816Z,28.80
2022-08-04T15:54:39.875Z,29.00
2022-08-04T15:57:10.013Z,29.00
2022-08-04T15:59:55.584Z,28.90
2022-08-04T16:02:48.827Z,28.80
2022-08-04T16:05:18.054Z,28.70
2022-08-04T16:08:04.446Z,28.70
2022-08-04T16:10:31.087Z,28.60
2022-08-04T16:13:04.381Z,28.50
2022-08-04T16:15:42.679Z,28.40
2022-08-04T16:18:25.739Z,28.40
2022-08-04T16:20:59.128Z,28.20
2022-08-04T16:23:56.910Z,28.10
2022-08-04T16:26:38.264Z,28.00
2022-08-04T16:29:28.284Z,27.80
2022-08-04T16:32:16.155Z,27.70
2022-08-04T16:34:55.167Z,27.50
2022-08-04T16:37:34.409Z,27.50
2022-08-04T16:40:38.051Z,27.40
2022-08-04T16:43:29.354Z,27.10
2022-08-04T16:46:04.537Z,26.90
2022-08-04T16:48:35.864Z,26.70
2022-08-04T16:51:06.696Z,26.50
2022-08-04T16:53:53.172Z,26.30
2022-08-04T16:56:33.694Z,26.20
2022-08-04T16:59:12.281Z,26.10
2022-08-04T17:01:50.478Z,26.20
2022-08-04T17:04:17.732Z,26.20
2022-08-04T17:06:46.621Z,26.20
2022-08-04T17:09:16.294Z,26.20
2022-08-04T17:11:44.405Z,26.10
2022-08-04T17:14:11.638Z,26.00
2022-08-04T17:16:42.957Z,25.90
2022-08-04T17:19:20.405Z,25.90
2022-08-04T17:22:03.014Z,25.90
2022-08-04T17:24:33.117Z,25.80
2022-08-04T17:27:04.545Z,25.80
2022-08-04T17:29:49.896Z,25.80
2022-08-04T17:32:18.540Z,25.80
2022-08-04T17:37:52.854Z,25.60
2022-08-04T17:40:25.298Z,25.40
2022-08-04T17:44:01.377Z,25.20
2022-08-04T17:46:16.329Z,25.10
2022-08-04T17:49:08.896Z,24.90
2022-08-04T17:52:02.534Z,24.80
2022-08-04T17:54:37.030Z,24.60
2022-08-04T17:57:21.367Z,24.50
2022-08-04T17:59:58.773Z,24.40
2022-08-04T18:02:33.466Z,24.20
2022-08-04T18:05:07.904Z,24.20
2022-08-04T18:08:39.780Z,24.10
2022-08-04T18:10:52.020Z,24.00
2022-08-04T18:13:27.971Z,24.00
2022-08-04T18:16:14.618Z,24.00
2022-08-04T18:19:31.406Z,23.90
2022-08-04T18:22:01.320Z,23.90
2022-08-04T18:24:36.024Z,23.90
2022-08-04T18:27:18.289Z,23.90
2022-08-04T18:30:14.593Z,23.80
2022-08-04T18:32:33.775Z,23.70
2022-08-04T18:35:05.073Z,23.60
2022-08-04T18:38:05.146Z,23.60
2022-08-04T18:40:30.299Z,23.50
2022-08-04T18:43:02.345Z,23.50
2022-08-04T18:45:33.843Z,23.50
2022-08-04T18:48:04.213Z,23.40
2022-08-04T18:51:09.519Z,23.30
2022-08-04T18:56:29.129Z,23.30
2022-08-04T18:59:03.715Z,23.10
2022-08-04T19:02:13.756Z,23.10
2022-08-04T19:04:34.062Z,23.10
2022-08-04T19:07:24.624Z,23.10
2022-08-04T19:09:57.931Z,23.00
2022-08-04T19:12:27.090Z,23.00
2022-08-04T19:15:08.734Z,22.90
2022-08-04T19:17:55.226Z,22.90
2022-08-04T19:20:28.100Z,22.90
2022-08-04T19:24:29.483Z,22.90
2022-08-04T19:25:58.820Z,22.80
2022-08-04T19:28:34.924Z,22.80
2022-08-04T19:31:04.463Z,22.70
2022-08-04T19:33:59.280Z,22.70
2022-08-04T19:36:19.020Z,22.60
2022-08-04T19:38:46.154Z,22.60
2022-08-04T19:41:15.438Z,22.50
2022-08-04T19:43:47.004Z,22.50
2022-08-04T19:46:15.115Z,22.50
2022-08-04T19:48:44.776Z,22.40
2022-08-04T19:51:29.210Z,22.40
2022-08-04T19:54:04.275Z,22.30
2022-08-04T19:56:40.632Z,22.30
2022-08-04T19:59:09.436Z,22.30
2022-08-04T20:01:44.217Z,22.20
2022-08-04T20:04:12.801Z,22.20
2022-08-04T20:06:39.668Z,22.10
2022-08-04T20:09:24.950Z,22.10
2022-08-04T20:11:56.448Z,22.10
2022-08-04T20:14:32.141Z,22.00
2022-08-04T20:17:01.647Z,22.00
2022-08-04T20:19:28.324Z,22.00
2022-08-04T20:21:57.594Z,22.00
2022-08-04T20:24:38.266Z,21.90
2022-08-04T20:27:14.593Z,21.90
2022-08-04T20:29:48.747Z,21.80
2022-08-04T20:32:21.926Z,21.70
2022-08-04T20:34:51.414Z,21.70
2022-08-04T20:37:19.491Z,21.70
2022-08-04T20:39:54.403Z,21.70
2022-08-04T20:42:27.710Z,21.60
2022-08-04T20:45:01.387Z,21.60
2022-08-04T20:47:35.017Z,21.60
2022-08-04T20:50:09.114Z,21.60
2022-08-04T20:52:37.196Z,21.60
2022-08-04T20:55:05.471Z,21.50
2022-08-04T20:57:47.606Z,21.50
2022-08-04T21:00:26.549Z,21.60
2022-08-04T21:02:57.179Z,21.60
2022-08-04T21:05:23.831Z,21.60
2022-08-04T21:07:56.394Z,21.60
2022-08-04T21:10:24.647Z,21.60
2022-08-04T21:12:53.450Z,21.60
2022-08-04T21:15:24.941Z,21.60
2022-08-04T21:17:57.531Z,21.60
2022-08-04T21:20:30.163Z,21.50
2022-08-04T21:25:50.823Z,21.50
2022-08-04T21:28:20.609Z,21.50
2022-08-04T21:30:54.636Z,21.50
2022-08-04T21:33:24.610Z,21.50
2022-08-04T21:36:11.817Z,21.50
2022-08-04T21:38:39.383Z,21.40
2022-08-04T21:41:09.122Z,21.50
2022-08-04T21:43:42.403Z,21.50
2022-08-04T21:46:10.439Z,21.50
2022-08-04T21:48:38.551Z,21.50
2022-08-04T21:51:56.953Z,21.50
2022-08-04T21:54:06.574Z,21.40
2022-08-04T21:56:34.139Z,21.40
2022-08-04T21:59:02.597Z,21.40
2022-08-04T22:01:50.358Z,21.40
2022-08-04T22:04:19.406Z,21.40
2022-08-04T22:06:51.635Z,21.40
2022-08-04T22:09:22.077Z,21.40
2022-08-04T22:11:51.066Z,21.30
2022-08-04T22:14:28.867Z,21.30
2022-08-04T22:16:58.473Z,21.30
2022-08-04T22:19:49.779Z,21.20
2022-08-04T22:22:13.471Z,21.20
2022-08-04T22:24:40.368Z,21.20
2022-08-04T22:27:11.148Z,21.20
2022-08-04T22:29:39.242Z,21.20
2022-08-04T22:32:11.344Z,21.20
2022-08-04T22:34:40.070Z,21.20
2022-08-04T22:37:12.765Z,21.10
2022-08-04T22:39:56.828Z,21.20
2022-08-04T22:42:24.287Z,21.20
2022-08-04T22:44:52.110Z,21.20
2022-08-04T22:47:20.227Z,21.20
2022-08-04T22:50:01.599Z,21.20
2022-08-04T22:52:37.147Z,21.20
2022-08-04T22:55:22.844Z,21.10
2022-08-04T22:58:04.614Z,21.10
2022-08-04T23:00:32.698Z,21.10
2022-08-04T23:02:59.550Z,21.10
2022-08-04T23:05:29.229Z,21.10
2022-08-04T23:08:05.208Z,21.10
2022-08-04T23:10:32.372Z,21.10
2022-08-04T23:13:03.999Z,21.00
2022-08-04T23:15:33.634Z,21.00
2022-08-04T23:18:01.302Z,21.00
2022-08-04T23:20:32.948Z,21.00
2022-08-04T23:23:12.468Z,21.00
2022-08-04T23:26:07.743Z,21.00
2022-08-04T23:28:31.377Z,21.00
2022-08-04T23:30:58.100Z,21.00
2022-08-04T23:33:24.815Z,20.90
2022-08-04T23:36:11.889Z,21.00
2022-08-04T23:38:39.246Z,21.00
2022-08-04T23:41:13.534Z,21.10
2022-08-04T23:43:55.310Z,21.10
2022-08-04T23:46:23.012Z,21.10
2022-08-04T23:48:50.987Z,21.10
2022-08-04T23:51:19.104Z,21.10
2022-08-04T23:54:01.950Z,21.00
2022-08-04T23:56:31.800Z,21.00
2022-08-04T23:58:58.722Z,20.90
